createdAt,value
2023-02-03T00:01:03.067Z,2.90
2023-02-03T00:03:50.527Z,3.03
2023-02-03T00:06:38.097Z,2.58
2023-02-03T00:09:26.470Z,2.67
2023-02-03T00:12:15.431Z,2.42
2023-02-03T00:15:02.839Z,3.20
2023-02-03T00:17:50.489Z,2.38
2023-02-03T00:20:38.165Z,2.70
2023-02-03T00:23:26.188Z,2.55
2023-02-03T00:26:17.171Z,2.42
2023-02-03T00:29:06.254Z,2.55
2023-02-03T00:31:55.019Z,2.55
2023-02-03T00:34:43.127Z,2.90
2023-02-03T00:37:30.861Z,2.55
2023-02-03T00:40:18.384Z,2.60
2023-02-03T00:43:06.226Z,2.20
2023-02-03T00:45:55.029Z,2.55
2023-02-03T00:48:42.987Z,2.55
2023-02-03T00:51:30.571Z,2.55
2023-02-03T00:54:18.996Z,2.90
2023-02-03T00:57:06.437Z,2.40
2023-02-03T00:59:54.876Z,2.45
2023-02-03T01:02:43.918Z,2.88
2023-02-03T01:05:32.166Z,2.67
2023-02-03T01:08:19.708Z,2.50
2023-02-03T01:11:09.193Z,2.97
2023-02-03T01:13:59.375Z,2.83
2023-02-03T01:16:47.133Z,3.00
2023-02-03T01:19:36.270Z,3.38
2023-02-03T01:22:23.914Z,2.92
2023-02-03T01:25:11.386Z,2.63
2023-02-03T01:27:59.030Z,2.97
2023-02-03T01:30:46.862Z,3.20
2023-02-03T01:33:34.337Z,3.13
2023-02-03T01:36:28.865Z,3.20
2023-02-03T01:39:16.476Z,3.40
2023-02-03T01:42:04.091Z,3.88
2023-02-03T01:44:52.780Z,3.05
2023-02-03T01:47:49.539Z,3.20
2023-02-03T01:50:39.210Z,3.75
2023-02-03T01:53:28.092Z,3.70
2023-02-03T01:56:16.695Z,3.70
2023-02-03T01:59:04.455Z,3.65
2023-02-03T02:01:54.946Z,3.70
2023-02-03T02:04:56.913Z,4.05
2023-02-03T02:07:47.192Z,3.30
2023-02-03T02:10:36.718Z,3.60
2023-02-03T02:13:25.408Z,3.60
2023-02-03T02:16:20.931Z,3.60
2023-02-03T02:19:48.750Z,4.35
2023-02-03T02:23:03.034Z,3.65
2023-02-03T02:26:21.796Z,4.00
2023-02-03T02:29:41.748Z,3.85
2023-02-03T02:32:49.608Z,4.13
2023-02-03T02:35:59.882Z,3.80
2023-02-03T02:38:58.681Z,3.72
2023-02-03T02:41:53.718Z,3.67
2023-02-03T02:44:47.879Z,4.28
2023-02-03T02:47:36.770Z,4.10
2023-02-03T02:50:31.331Z,3.85
2023-02-03T02:53:25.030Z,3.47
2023-02-03T02:56:17.106Z,3.78
2023-02-03T02:59:08.098Z,4.03
2023-02-03T03:01:55.650Z,3.53
2023-02-03T03:04:48.985Z,3.70
2023-02-03T03:07:45.984Z,3.72
2023-02-03T03:10:36.455Z,3.65
2023-02-03T03:13:32.059Z,3.92
2023-02-03T03:16:25.091Z,3.03
2023-02-03T03:19:19.577Z,3.03
2023-02-03T03:22:14.443Z,3.03
2023-02-03T03:25:10.718Z,3.25
2023-02-03T03:28:04.454Z,2.92
2023-02-03T03:30:52.116Z,2.97
2023-02-03T03:33:40.545Z,3.05
2023-02-03T03:36:37.848Z,2.83
2023-02-03T03:39:38.129Z,2.90
2023-02-03T03:42:34.026Z,2.53
2023-02-03T03:45:29.701Z,2.75
2023-02-03T03:48:24.731Z,2.60
2023-02-03T03:51:20.554Z,2.50
2023-02-03T03:54:15.012Z,2.90
2023-02-03T03:57:15.461Z,2.78
2023-02-03T04:00:10.763Z,2.88
2023-02-03T04:03:06.546Z,2.70
2023-02-03T04:05:54.336Z,2.50
2023-02-03T04:08:42.134Z,2.85
2023-02-03T04:11:47.579Z,2.72
2023-02-03T04:14:39.110Z,2.90
2023-02-03T04:17:27.166Z,2.65
2023-02-03T04:20:16.499Z,2.70
2023-02-03T04:23:04.368Z,2.80
2023-02-03T04:25:51.992Z,2.42
2023-02-03T04:28:41.478Z,2.45
2023-02-03T04:31:33.698Z,2.60
2023-02-03T04:34:21.732Z,2.58
2023-02-03T04:37:10.073Z,2.72
2023-02-03T04:39:59.800Z,2.67
2023-02-03T04:42:49.788Z,2.35
2023-02-03T04:45:37.439Z,2.58
2023-02-03T04:48:26.568Z,2.60
2023-02-03T04:51:14.265Z,2.50
2023-02-03T04:54:02.070Z,2.42
2023-02-03T04:56:49.789Z,2.80
2023-02-03T04:59:37.548Z,2.17
2023-02-03T05:02:25.112Z,2.15
2023-02-03T05:05:14.215Z,2.40
2023-02-03T05:08:02.013Z,2.20
2023-02-03T05:10:49.635Z,2.20
2023-02-03T05:13:37.372Z,1.83
2023-02-03T05:16:24.947Z,1.80
2023-02-03T05:19:12.878Z,1.90
2023-02-03T05:22:01.945Z,1.80
2023-02-03T05:24:49.630Z,1.58
2023-02-03T05:27:39.716Z,1.83
2023-02-03T05:30:29.805Z,1.92
2023-02-03T05:33:18.021Z,1.70
2023-02-03T05:36:06.675Z,1.58
2023-02-03T05:38:55.642Z,1.80
2023-02-03T05:41:55.932Z,1.50
2023-02-03T05:44:44.936Z,1.40
2023-02-03T05:47:32.488Z,1.33
2023-02-03T05:50:20.497Z,1.50
2023-02-03T05:53:09.199Z,1.63
2023-02-03T05:55:57.868Z,1.48
2023-02-03T05:58:45.463Z,1.25
2023-02-03T06:01:33.487Z,1.50
2023-02-03T06:04:21.350Z,1.38
2023-02-03T06:07:09.075Z,1.30
2023-02-03T06:09:56.896Z,1.27
2023-02-03T06:12:48.776Z,1.40
2023-02-03T06:15:36.833Z,1.40
2023-02-03T06:18:25.318Z,1.48
2023-02-03T06:21:13.418Z,1.20
2023-02-03T06:24:01.109Z,1.10
2023-02-03T06:26:48.487Z,1.30
2023-02-03T06:29:37.580Z,1.27
2023-02-03T06:32:24.963Z,1.10
2023-02-03T06:35:12.389Z,1.00
2023-02-03T06:38:00.439Z,1.08
2023-02-03T06:40:49.091Z,1.25
2023-02-03T06:43:37.076Z,1.02
2023-02-03T06:46:28.320Z,1.15
2023-02-03T06:49:16.900Z,1.20
2023-02-03T06:52:04.601Z,1.10
2023-02-03T06:54:52.177Z,1.00
2023-02-03T06:57:45.581Z,1.10
2023-02-03T07:00:33.111Z,1.25
2023-02-03T07:03:22.375Z,1.20
2023-02-03T07:06:10.057Z,1.25
2023-02-03T07:08:59.954Z,1.60
2023-02-03T07:11:49.125Z,1.30
2023-02-03T07:14:39.301Z,1.40
2023-02-03T07:17:26.868Z,1.20
2023-02-03T07:20:16.136Z,1.13
2023-02-03T07:23:04.405Z,1.33
2023-02-03T07:25:52.083Z,1.35
2023-02-03T07:28:39.638Z,1.20
2023-02-03T07:31:27.316Z,1.52
2023-02-03T07:34:16.427Z,1.42
2023-02-03T07:37:05.137Z,1.52
2023-02-03T07:39:52.588Z,1.83
2023-02-03T07:42:43.262Z,2.25
2023-02-03T07:45:30.938Z,2.35
2023-02-03T07:48:18.719Z,4.13
2023-02-03T07:51:06.910Z,2.78
2023-02-03T07:53:57.276Z,2.88
2023-02-03T07:56:44.943Z,2.55
2023-02-03T07:59:32.388Z,2.08
2023-02-03T08:02:20.059Z,2.17
2023-02-03T08:05:08.751Z,2.20
2023-02-03T08:07:56.856Z,4.18
2023-02-03T08:10:45.968Z,1.60
2023-02-03T08:13:33.836Z,1.50
2023-02-03T08:16:21.285Z,1.38
2023-02-03T08:19:08.744Z,1.42
2023-02-03T08:21:56.745Z,1.63
2023-02-03T08:24:45.842Z,1.60
2023-02-03T08:27:35.004Z,1.60
2023-02-03T08:30:24.009Z,1.70
2023-02-03T08:33:13.680Z,1.50
2023-02-03T08:36:02.921Z,1.52
2023-02-03T08:38:51.224Z,1.55
2023-02-03T08:41:38.816Z,1.48
2023-02-03T08:44:28.907Z,1.50
2023-02-03T08:47:16.895Z,1.70
2023-02-03T08:50:05.351Z,1.73
2023-02-03T08:52:53.081Z,1.70
2023-02-03T08:55:41.384Z,2.10
2023-02-03T08:58:28.693Z,1.58
2023-02-03T09:01:17.648Z,1.77
2023-02-03T09:04:07.298Z,1.60
2023-02-03T09:06:55.658Z,1.60
2023-02-03T09:09:43.187Z,1.70
2023-02-03T09:12:31.287Z,1.55
2023-02-03T09:15:19.254Z,1.55
2023-02-03T09:18:07.893Z,1.77
2023-02-03T09:21:02.929Z,1.65
2023-02-03T09:23:50.468Z,1.98
2023-02-03T09:26:37.852Z,2.08
2023-02-03T09:29:26.376Z,2.00
2023-02-03T09:32:15.454Z,1.80
2023-02-03T09:35:05.688Z,2.00
2023-02-03T09:37:53.192Z,2.00
2023-02-03T09:40:41.758Z,1.52
2023-02-03T09:43:38.611Z,1.77
2023-02-03T09:46:31.124Z,1.85
2023-02-03T09:49:25.379Z,1.80
2023-02-03T09:52:20.291Z,2.00
2023-02-03T09:55:26.581Z,1.90
2023-02-03T09:58:18.316Z,1.70
2023-02-03T10:01:13.884Z,1.90
2023-02-03T10:04:12.923Z,1.48
2023-02-03T10:07:15.041Z,1.83
2023-02-03T10:10:15.595Z,1.80
2023-02-03T10:13:17.209Z,1.63
2023-02-03T10:16:34.930Z,1.77
2023-02-03T10:19:34.824Z,1.83
2023-02-03T10:22:29.335Z,1.90
2023-02-03T10:25:26.896Z,1.40
2023-02-03T10:28:20.707Z,1.50
2023-02-03T10:31:18.762Z,1.70
2023-02-03T10:34:13.448Z,2.17
2023-02-03T10:37:06.625Z,1.80
2023-02-03T10:39:56.837Z,1.55
2023-02-03T10:43:06.605Z,1.60
2023-02-03T10:45:54.852Z,1.70
2023-02-03T10:48:43.458Z,1.50
2023-02-03T10:51:35.938Z,1.50
2023-02-03T10:54:31.977Z,1.63
2023-02-03T10:57:19.688Z,1.80
2023-02-03T11:00:29.054Z,1.80
2023-02-03T11:03:26.314Z,1.77
2023-02-03T11:06:17.015Z,1.75
2023-02-03T11:09:29.909Z,1.63
2023-02-03T11:12:21.028Z,1.80
2023-02-03T11:15:15.878Z,1.38
2023-02-03T11:18:05.923Z,1.50
2023-02-03T11:20:54.365Z,2.05
2023-02-03T11:23:55.705Z,1.73
2023-02-03T11:26:47.454Z,1.85
2023-02-03T11:29:38.519Z,2.17
2023-02-03T11:32:37.406Z,2.40
2023-02-03T11:35:29.168Z,1.80
2023-02-03T11:38:31.510Z,1.90
2023-02-03T11:41:23.888Z,2.10
2023-02-03T11:44:17.508Z,2.00
2023-02-03T11:47:12.090Z,2.13
2023-02-03T11:50:30.749Z,2.05
2023-02-03T11:53:29.249Z,1.77
2023-02-03T11:56:36.544Z,1.50
2023-02-03T11:59:46.217Z,1.83
2023-02-03T12:03:30.858Z,1.80
2023-02-03T12:06:54.583Z,1.85
2023-02-03T12:09:58.014Z,1.40
2023-02-03T12:13:01.552Z,1.40
2023-02-03T12:16:15.007Z,1.40
2023-02-03T12:19:15.675Z,1.85
2023-02-03T12:22:15.167Z,1.60
2023-02-03T12:25:33.943Z,1.60
2023-02-03T12:28:46.934Z,1.70
2023-02-03T12:31:41.023Z,1.80
2023-02-03T12:34:35.319Z,1.50
2023-02-03T12:37:31.771Z,1.58
2023-02-03T12:40:30.240Z,1.48
2023-02-03T12:43:29.903Z,1.50
2023-02-03T12:46:23.357Z,1.27
2023-02-03T12:49:35.158Z,1.40
2023-02-03T12:52:31.781Z,1.50
2023-02-03T12:55:32.020Z,1.50
2023-02-03T12:58:27.568Z,1.67
2023-02-03T13:01:21.975Z,1.73
2023-02-03T13:04:16.565Z,1.60
2023-02-03T13:07:13.819Z,1.50
2023-02-03T13:10:13.661Z,1.40
2023-02-03T13:13:04.682Z,1.60
2023-02-03T13:15:56.542Z,1.10
2023-02-03T13:18:49.018Z,1.20
2023-02-03T13:21:37.430Z,1.50
2023-02-03T13:24:28.500Z,1.15
2023-02-03T13:27:46.535Z,1.40
2023-02-03T13:31:16.727Z,1.20
2023-02-03T13:34:30.949Z,1.30
2023-02-03T13:37:57.143Z,1.30
2023-02-03T13:41:00.965Z,1.30
2023-02-03T13:43:53.297Z,2.42
2023-02-03T13:46:41.703Z,1.77
2023-02-03T13:49:33.661Z,2.40
2023-02-03T13:52:29.715Z,4.70
2023-02-03T13:55:36.676Z,2.58
2023-02-03T13:58:28.813Z,2.25
2023-02-03T14:01:34.508Z,2.15
2023-02-03T14:04:55.067Z,1.65
2023-02-03T14:07:42.782Z,1.50
2023-02-03T14:10:32.305Z,1.55
2023-02-03T14:13:23.659Z,1.23
2023-02-03T14:16:26.248Z,1.30
2023-02-03T14:19:58.144Z,1.40
2023-02-03T14:22:45.620Z,1.30
2023-02-03T14:25:39.744Z,1.10
2023-02-03T14:28:40.079Z,1.13
2023-02-03T14:31:29.831Z,1.00
2023-02-03T14:34:19.911Z,1.08
2023-02-03T14:37:28.537Z,1.20
2023-02-03T14:40:33.238Z,1.10
2023-02-03T14:43:37.775Z,1.15
2023-02-03T14:46:59.844Z,1.33
2023-02-03T14:50:13.750Z,1.27
2023-02-03T14:53:32.060Z,1.30
2023-02-03T14:56:53.457Z,1.58
2023-02-03T14:59:48.291Z,1.40
2023-02-03T15:02:37.269Z,1.30
2023-02-03T15:05:41.030Z,1.17
2023-02-03T15:08:42.172Z,2.05
2023-02-03T15:11:34.677Z,1.30
2023-02-03T15:14:26.466Z,1.40
2023-02-03T15:17:24.497Z,1.30
2023-02-03T15:20:41.613Z,0.98
2023-02-03T15:23:39.164Z,0.90
2023-02-03T15:26:32.169Z,1.10
2023-02-03T15:32:23.519Z,0.80
2023-02-03T15:35:17.799Z,1.10
2023-02-03T15:38:09.252Z,0.90
2023-02-03T15:40:59.569Z,1.25
2023-02-03T15:43:52.699Z,1.45
2023-02-03T15:49:37.209Z,1.10
2023-02-03T15:52:30.490Z,1.20
2023-02-03T15:55:27.069Z,1.02
2023-02-03T15:58:20.372Z,1.00
2023-02-03T16:01:17.653Z,1.05
2023-02-03T16:04:14.573Z,1.00
2023-02-03T16:07:02.872Z,1.35
2023-02-03T16:09:54.613Z,1.20
2023-02-03T16:12:43.226Z,2.17
2023-02-03T16:15:33.268Z,1.20
2023-02-03T16:18:24.007Z,1.10
2023-02-03T16:21:32.846Z,1.38
2023-02-03T16:24:40.956Z,1.55
2023-02-03T16:27:35.696Z,1.65
2023-02-03T16:30:43.199Z,1.65
2023-02-03T16:33:51.237Z,1.30
2023-02-03T16:37:00.451Z,1.60
2023-02-03T16:40:05.880Z,1.55
2023-02-03T16:43:10.994Z,1.50
2023-02-03T16:46:18.250Z,1.15
2023-02-03T16:49:26.487Z,1.30
2023-02-03T16:52:16.644Z,1.52
2023-02-03T16:55:04.382Z,1.33
2023-02-03T16:57:52.445Z,1.70
2023-02-03T17:00:41.781Z,1.88
2023-02-03T17:03:32.712Z,2.00
2023-02-03T17:06:23.514Z,2.30
2023-02-03T17:09:11.586Z,1.80
2023-02-03T17:12:02.402Z,1.58
2023-02-03T17:14:49.894Z,1.40
2023-02-03T17:17:37.439Z,1.60
2023-02-03T17:20:24.944Z,2.40
2023-02-03T17:23:18.700Z,2.15
2023-02-03T17:26:06.946Z,2.00
2023-02-03T17:28:54.337Z,1.55
2023-02-03T17:31:42.294Z,1.60
2023-02-03T17:34:30.083Z,1.52
2023-02-03T17:37:17.452Z,1.50
2023-02-03T17:55:40.420Z,2.08
2023-02-03T17:58:28.203Z,1.77
2023-02-03T18:01:18.506Z,1.77
2023-02-03T18:04:08.828Z,1.88
2023-02-03T18:06:56.286Z,1.60
2023-02-03T18:09:43.861Z,1.70
2023-02-03T18:12:32.892Z,1.60
2023-02-03T18:15:20.453Z,1.70
2023-02-03T18:18:07.973Z,1.67
2023-02-03T18:20:58.370Z,2.08
2023-02-03T18:23:51.107Z,1.92
2023-02-03T18:26:49.826Z,2.42
2023-02-03T18:29:40.863Z,1.90
2023-02-03T18:32:28.343Z,1.60
2023-02-03T18:35:17.111Z,1.60
2023-02-03T18:38:04.705Z,1.55
2023-02-03T18:40:54.399Z,1.70
2023-02-03T18:43:42.296Z,2.97
2023-02-03T18:46:33.547Z,5.72
2023-02-03T18:49:21.608Z,6.25
2023-02-03T18:52:08.986Z,4.70
2023-02-03T18:54:56.623Z,4.15
2023-02-03T18:57:44.170Z,3.00
2023-02-03T19:00:32.041Z,2.42
2023-02-03T19:03:22.902Z,2.13
2023-02-03T19:06:11.781Z,1.92
2023-02-03T19:09:00.852Z,1.90
2023-02-03T19:11:48.387Z,1.80
2023-02-03T19:14:36.667Z,1.73
2023-02-03T19:17:24.375Z,1.92
2023-02-03T19:20:14.427Z,1.73
2023-02-03T19:23:04.479Z,1.67
2023-02-03T19:25:52.345Z,1.70
2023-02-03T19:28:40.673Z,2.05
2023-02-03T19:31:28.257Z,1.98
2023-02-03T19:34:17.127Z,1.73
2023-02-03T19:37:06.508Z,1.80
2023-02-03T19:39:54.263Z,1.70
2023-02-03T19:42:41.762Z,1.83
2023-02-03T19:45:29.482Z,1.77
2023-02-03T19:48:16.894Z,2.28
2023-02-03T19:51:04.384Z,1.98
2023-02-03T19:53:53.782Z,1.77
2023-02-03T19:56:41.987Z,1.90
2023-02-03T19:59:29.609Z,2.10
2023-02-03T20:02:17.395Z,1.98
2023-02-03T20:05:05.347Z,1.80
2023-02-03T20:08:14.610Z,2.20
2023-02-03T20:11:03.948Z,2.33
2023-02-03T20:13:51.911Z,2.33
2023-02-03T20:16:39.770Z,2.30
2023-02-03T20:19:27.756Z,2.95
2023-02-03T20:22:15.600Z,2.30
2023-02-03T20:25:07.083Z,2.80
2023-02-03T20:27:57.410Z,2.40
2023-02-03T20:30:45.157Z,2.33
2023-02-03T20:33:35.324Z,2.58
2023-02-03T20:36:22.859Z,2.50
2023-02-03T20:39:30.081Z,2.67
2023-02-03T20:42:19.291Z,2.38
2023-02-03T20:45:15.052Z,2.60
2023-02-03T20:48:27.689Z,2.42
2023-02-03T20:59:39.975Z,2.00
2023-02-03T21:03:19.236Z,2.20
2023-02-03T21:06:15.236Z,2.80
2023-02-03T21:09:14.566Z,2.30
2023-02-03T21:12:02.186Z,2.40
2023-02-03T21:14:50.099Z,2.55
2023-02-03T21:17:38.937Z,3.60
2023-02-03T21:20:30.364Z,3.00
2023-02-03T21:23:18.873Z,2.47
2023-02-03T21:26:21.458Z,2.75
2023-02-03T21:29:24.191Z,2.83
2023-02-03T21:32:15.363Z,2.83
2023-02-03T21:35:20.130Z,2.50
2023-02-03T21:38:30.829Z,2.95
2023-02-03T21:41:21.349Z,3.10
2023-02-03T21:44:28.875Z,2.60
2023-02-03T21:47:22.317Z,2.67
2023-02-03T21:50:31.837Z,2.70
2023-02-03T21:53:27.808Z,2.90
2023-02-03T21:56:19.780Z,2.90
2023-02-03T21:59:17.782Z,2.70
2023-02-03T22:02:45.307Z,2.72
2023-02-03T22:05:34.408Z,2.92
2023-02-03T22:08:24.296Z,3.50
2023-02-03T22:11:12.777Z,2.67
2023-02-03T22:14:00.816Z,2.55
2023-02-03T22:16:48.778Z,2.65
2023-02-03T22:19:37.595Z,2.47
2023-02-03T22:22:26.652Z,3.45
2023-02-03T22:25:14.537Z,2.65
2023-02-03T22:28:02.385Z,2.85
2023-02-03T22:30:50.155Z,3.00
2023-02-03T22:33:37.929Z,3.03
2023-02-03T22:36:25.912Z,2.45
2023-02-03T22:39:15.129Z,2.38
2023-02-03T22:42:02.928Z,2.70
2023-02-03T22:44:50.436Z,2.17
2023-02-03T22:47:37.989Z,2.50
2023-02-03T22:50:35.071Z,3.45
2023-02-03T22:53:23.552Z,3.10
2023-02-03T22:56:12.303Z,3.25
2023-02-03T22:58:59.710Z,2.53
2023-02-03T23:01:47.271Z,2.92
2023-02-03T23:04:34.807Z,2.58
2023-02-03T23:07:22.336Z,2.28
2023-02-03T23:10:13.627Z,2.42
2023-02-03T23:13:02.528Z,2.60
2023-02-03T23:15:50.446Z,2.72
2023-02-03T23:18:37.773Z,3.10
2023-02-03T23:21:25.690Z,2.85
2023-02-03T23:24:13.603Z,2.83
2023-02-03T23:27:02.219Z,2.95
2023-02-03T23:29:51.255Z,2.80
2023-02-03T23:32:38.971Z,2.42
2023-02-03T23:35:43.931Z,2.88
2023-02-03T23:38:33.309Z,2.80
2023-02-03T23:41:21.149Z,2.60
2023-02-03T23:44:09.338Z,2.83
2023-02-03T23:46:58.334Z,2.78
2023-02-03T23:49:46.214Z,2.58
2023-02-03T23:52:35.699Z,3.13
2023-02-03T23:55:23.541Z,2.78
2023-02-03T23:58:11.062Z,2.90
